< < Back
Terminal Aerodrome Forecast


Current Version              Previous Versions:   1  2  3  4  5  6  7  8  9  

Terminal Aerodrome Forecast

343
FTUS42 KFFC 262147 AAB
TAFCSG
TAF AMD
KCSG 262147Z 2622/2718 VRB04KT P6SM VCSH SCT060
     FM270200 VRB03KT P6SM SCT050 BKN100
     FM270700 00000KT P6SM FEW015 SCT100
     FM271700 26003KT P6SM VCSH BKN040=

Latest METAR

941
SAUS70 KWBC 271200 RRA
MTRCSG
METAR KCSG 271151Z AUTO 00000KT 10SM CLR 20/19 A2996 RMK AO2 SLP142
T02000189 10228 20200 53005


USA.gov is the U.S. government's official web portal to all federal, state and local government web resources and services.